This is the latest recevied weather packets stored in our database for station/object KK7ISX. If no packets are shown the sender has not sent any weather packets the latest 10 day(s).
| Time | Temp. | Humidity | Pressure | Rain* | Wind** | Luminosity | Snow |
|---|---|---|---|---|---|---|---|
| 1777413600 | 16.67° C | 33% | 1019.2 hPa | 0 mm | - | 578 W/m² | - |
| 1777413296 | 17.22° C | 32% | 1019.2 hPa | 0 mm | - | 588 W/m² | - |
| 1777412992 | 17.22° C | 33% | 1019.2 hPa | 0 mm | - | 595 W/m² | - |
| 1777412691 | 16.67° C | 32% | 1019.4 hPa | 0 mm | - | 605 W/m² | - |
| 1777412390 | 16.67° C | 30% | 1019.2 hPa | 0 mm | - | 617 W/m² | - |
| 1777412084 | 16.67° C | 33% | 1019.5 hPa | 0 mm | - | 624 W/m² | - |
| 1777411780 | 16.67° C | 35% | 1019.5 hPa | 0 mm | - | 632 W/m² | - |
| 1777411479 | 16.11° C | 34% | 1019.7 hPa | 0 mm | - | 640 W/m² | - |
| 1777411178 | 16.67° C | 32% | 1019.6 hPa | 0 mm | - | 649 W/m² | - |
| 1777410873 | 16.67° C | 35% | 1019.6 hPa | 0 mm | - | 654 W/m² | - |
| 1777410573 | 16.11° C | 37% | 1019.6 hPa | 0 mm | - | 673 W/m² | - |
| 1777410266 | 16.67° C | 32% | 1019.7 hPa | 0 mm | - | 105 W/m² | - |
| 1777409961 | 16.67° C | 34% | 1019.6 hPa | 0 mm | - | 680 W/m² | - |
| 1777409656 | 17.22° C | 34% | 1019.6 hPa | 0 mm | - | 685 W/m² | - |
| 1777409354 | 16.11° C | 33% | 1019.5 hPa | 0 mm | - | 687 W/m² | - |
| 1777409049 | 16.67° C | 36% | 1019.6 hPa | 0 mm | - | 703 W/m² | - |
| 1777408745 | 16.67° C | 36% | 1019.6 hPa | 0 mm | - | 707 W/m² | - |
| 1777408441 | 16.67° C | 35% | 1019.6 hPa | 0 mm | - | 709 W/m² | - |
| 1777408137 | 16.67° C | 34% | 1019.7 hPa | 0 mm | - | 741 W/m² | - |
| 1777407831 | 15.56° C | 37% | 1019.5 hPa | 0 mm | - | 736 W/m² | - |
| 1777407529 | 15.56° C | 38% | 1019.6 hPa | 0 mm | - | 739 W/m² | - |
| 1777407222 | 16.11° C | 39% | 1019.9 hPa | 0 mm | - | 729 W/m² | - |
| 1777406918 | 16.11° C | 36% | 1019.9 hPa | 0 mm | - | 720 W/m² | - |
| 1777406613 | 16.11° C | 37% | 1020 hPa | 0 mm | - | 728 W/m² | - |
| 1777406309 | 15.56° C | 37% | 1019.8 hPa | 0 mm | - | 730 W/m² | - |
* Rain latest hour (hover to see other rain measurements)
** Current wind speed in m/s (hover to see current wind gust speed)